Time,TemperatureF,DewpointF,PressureIn,WindDirection,WindDirectionDegrees,WindSpeedMPH,WindSpeedGustMPH,Humidity,HourlyPrecipIn,Conditions,Clouds,dailyrainin,SoftwareType,DateUTC
2013-03-18 00:00:00,68.1,64.7,29.75,South,190,6.0,8.0,89,0.00,,---,0.02,VWS V14.01,2013-03-18 05:00:00,
2013-03-18 00:03:00,68.3,64.6,29.76,South,188,4.0,7.0,88,0.00,,---,0.02,VWS V14.01,2013-03-18 05:03:00,
2013-03-18 00:08:00,68.1,64.7,29.76,South,182,0.0,7.0,89,0.00,,---,0.02,VWS V14.01,2013-03-18 05:08:00,
2013-03-18 00:13:00,68.1,64.7,29.76,SSW,196,5.0,7.0,89,0.00,,---,0.02,VWS V14.01,2013-03-18 05:13:00,
2013-03-18 00:15:00,68.3,64.9,29.75,SSE,168,2.0,10.0,89,0.00,,---,0.00,VWS V14.01,2013-03-18 05:15:00,
2013-03-18 00:18:00,68.1,64.7,29.76,South,178,3.0,6.0,89,0.00,,---,0.02,VWS V14.01,2013-03-18 05:18:00,
2013-03-18 00:24:00,68.1,64.7,29.76,South,175,4.0,10.0,89,0.00,,---,0.02,VWS V14.01,2013-03-18 05:24:00,
2013-03-18 00:29:00,68.1,64.7,29.75,South,184,0.0,10.0,89,0.00,,---,0.02,VWS V14.01,2013-03-18 05:29:00,
2013-03-18 00:30:00,68.4,65.0,29.75,South,176,4.0,10.0,89,0.00,,---,0.00,VWS V14.01,2013-03-18 05:30:00,
2013-03-18 00:34:00,68.1,64.7,29.75,South,179,0.0,0.0,89,0.00,,---,0.02,VWS V14.01,2013-03-18 05:34:00,
2013-03-18 00:39:00,68.1,64.7,29.75,SSW,193,4.0,7.0,89,0.00,,---,0.02,VWS V14.01,2013-03-18 05:39:00,
2013-03-18 00:44:00,68.1,64.7,29.75,South,182,5.0,5.0,89,0.00,,---,0.02,VWS V14.01,2013-03-18 05:44:00,
2013-03-18 00:45:00,68.6,65.2,29.75,SSW,200,0.0,7.0,89,0.00,,---,0.00,VWS V14.01,2013-03-18 05:45:00,
2013-03-18 00:49:00,68.1,64.7,29.75,South,187,4.0,7.0,89,0.00,,---,0.02,VWS V14.01,2013-03-18 05:49:00,
2013-03-18 00:54:00,68.1,64.7,29.75,South,174,6.0,8.0,89,0.00,,---,0.02,VWS V14.01,2013-03-18 05:54:00,
2013-03-18 00:59:00,68.1,64.7,29.75,South,183,5.0,6.0,89,0.00,,---,0.00,VWS V14.01,2013-03-18 05:59:00,
2013-03-18 01:00:00,68.8,65.4,29.75,South,190,5.0,12.0,89,0.00,,---,0.00,VWS V14.01,2013-03-18 06:00:00,
2013-03-18 01:04:00,68.3,64.9,29.75,South,187,6.0,6.0,89,0.00,,---,0.00,VWS V14.01,2013-03-18 06:04:00,
2013-03-18 01:09:00,68.3,64.9,29.75,South,169,6.0,10.0,89,0.00,,---,0.00,VWS V14.01,2013-03-18 06:09:00,
2013-03-18 01:14:00,68.3,64.9,29.75,South,186,4.0,4.0,89,0.00,,---,0.00,VWS V14.01,2013-03-18 06:14:00,
2013-03-18 01:15:00,68.8,65.4,29.75,SSW,196,6.0,11.0,89,0.00,,---,0.00,VWS V14.01,2013-03-18 06:15:00,
2013-03-18 01:19:00,68.4,65.0,29.75,South,180,5.0,10.0,89,0.00,,---,0.00,VWS V14.01,2013-03-18 06:19:00,
2013-03-18 01:25:00,68.4,65.0,29.75,South,178,4.0,10.0,89,0.00,,---,0.00,VWS V14.01,2013-03-18 06:25:00,
2013-03-18 01:30:00,68.4,65.0,29.75,South,178,4.0,7.0,89,0.00,,---,0.00,VWS V14.01,2013-03-18 06:30:00,
2013-03-18 01:35:00,68.4,65.0,29.75,SSW,192,4.0,7.0,89,0.00,,---,0.00,VWS V14.01,2013-03-18 06:35:00,
2013-03-18 01:40:00,68.4,65.0,29.75,SSW,195,5.0,7.0,89,0.00,,---,0.00,VWS V14.01,2013-03-18 06:40:00,
2013-03-18 01:45:00,68.6,65.2,29.75,SSW,198,0.0,0.0,89,0.00,,---,0.00,VWS V14.01,2013-03-18 06:45:00,
2013-03-18 01:50:00,68.6,65.2,29.75,SSW,195,3.0,10.0,89,0.00,,---,0.00,VWS V14.01,2013-03-18 06:50:00,
2013-03-18 01:55:00,68.6,65.2,29.75,South,182,5.0,10.0,89,0.00,,---,0.00,VWS V14.01,2013-03-18 06:55:00,
2013-03-18 02:00:00,68.8,65.4,29.75,South,176,4.0,6.0,89,0.00,,---,0.00,VWS V14.01,2013-03-18 07:00:00,
2013-03-18 02:05:00,68.8,65.4,29.75,South,191,3.0,11.0,89,0.00,,---,0.00,VWS V14.01,2013-03-18 07:05:00,
2013-03-18 02:10:00,68.8,65.4,29.75,SSW,197,5.0,11.0,89,0.00,,---,0.00,VWS V14.01,2013-03-18 07:10:00,
2013-03-18 02:15:00,68.9,65.5,29.75,SSW,205,5.0,7.0,89,0.00,,---,0.00,VWS V14.01,2013-03-18 07:15:00,
2013-03-18 02:20:00,68.9,65.5,29.75,SSW,203,6.0,12.0,89,0.00,,---,0.00,VWS V14.01,2013-03-18 07:20:00,
2013-03-18 02:25:00,68.9,65.5,29.75,SSE,167,2.0,12.0,89,0.00,,---,0.00,VWS V14.01,2013-03-18 07:25:00,
2013-03-18 02:30:00,68.9,65.5,29.75,SSW,202,3.0,5.0,89,0.00,,---,0.00,VWS V14.01,2013-03-18 07:30:00,
2013-03-18 02:36:00,68.9,65.5,29.75,SSW,196,7.0,12.0,89,0.00,,---,0.00,VWS V14.01,2013-03-18 07:36:00,
2013-03-18 02:41:00,68.9,65.5,29.75,SSW,194,2.0,12.0,89,0.00,,---,0.00,VWS V14.01,2013-03-18 07:41:00,
2013-03-18 02:45:00,68.6,65.6,29.74,SSE,157,0.0,0.0,90,0.00,,---,0.00,VWS V14.01,2013-03-18 07:45:00,
2013-03-18 02:46:00,68.9,65.5,29.75,SSW,198,5.0,11.0,89,0.00,,---,0.00,VWS V14.01,2013-03-18 07:46:00,
2013-03-18 02:51:00,68.9,65.5,29.75,SSW,194,4.0,11.0,89,0.00,,---,0.00,VWS V14.01,2013-03-18 07:51:00,
2013-03-18 02:56:00,68.9,65.5,29.75,SSW,197,3.0,11.0,89,0.00,,---,0.00,VWS V14.01,2013-03-18 07:56:00,
2013-03-18 03:00:00,68.6,65.9,29.74,SSW,200,2.0,6.0,91,0.00,,---,0.00,VWS V14.01,2013-03-18 08:00:00,
2013-03-18 03:01:00,68.9,65.5,29.75,South,173,3.0,5.0,89,0.00,,---,0.00,VWS V14.01,2013-03-18 08:01:00,
2013-03-18 03:06:00,68.9,65.5,29.75,SSW,198,3.0,10.0,89,0.00,,---,0.00,VWS V14.01,2013-03-18 08:06:00,
2013-03-18 03:11:00,68.8,65.8,29.75,South,182,2.0,10.0,90,0.00,,---,0.00,VWS V14.01,2013-03-18 08:11:00,
2013-03-18 03:15:00,68.4,65.7,29.73,South,180,4.0,9.0,91,0.00,,---,0.00,VWS V14.01,2013-03-18 08:15:00,
2013-03-18 03:16:00,68.8,65.8,29.75,SSW,198,2.0,5.0,90,0.00,,---,0.00,VWS V14.01,2013-03-18 08:16:00,
2013-03-18 03:21:00,68.8,65.8,29.75,South,189,3.0,5.0,90,0.00,,---,0.00,VWS V14.01,2013-03-18 08:21:00,
2013-03-18 03:27:00,68.8,65.8,29.75,SSW,203,0.0,5.0,90,0.00,,---,0.00,VWS V14.01,2013-03-18 08:27:00,
2013-03-18 03:30:00,68.6,65.9,29.73,SSW,201,4.0,11.0,91,0.00,,---,0.00,VWS V14.01,2013-03-18 08:30:00,
2013-03-18 03:32:00,68.8,65.8,29.75,South,190,0.0,0.0,90,0.00,,---,0.00,VWS V14.01,2013-03-18 08:32:00,
2013-03-18 03:37:00,68.8,65.8,29.75,SSE,157,0.0,0.0,90,0.00,,---,0.00,VWS V14.01,2013-03-18 08:37:00,
2013-03-18 03:42:00,68.6,65.6,29.75,SSE,157,0.0,0.0,90,0.00,,---,0.00,VWS V14.01,2013-03-18 08:42:00,
2013-03-18 03:45:00,68.6,65.9,29.73,South,173,0.0,5.0,91,0.00,,---,0.00,VWS V14.01,2013-03-18 08:45:00,
2013-03-18 03:47:00,68.6,65.6,29.74,South,178,0.0,0.0,90,0.00,,---,0.00,VWS V14.01,2013-03-18 08:47:00,
2013-03-18 03:52:00,68.6,65.9,29.74,South,187,0.0,0.0,91,0.00,,---,0.00,VWS V14.01,2013-03-18 08:52:00,
2013-03-18 03:57:00,68.6,65.9,29.74,South,174,4.0,5.0,91,0.00,,---,0.00,VWS V14.01,2013-03-18 08:57:00,
2013-03-18 04:00:00,68.8,66.1,29.73,South,188,3.0,4.0,91,0.00,,---,0.00,VWS V14.01,2013-03-18 09:00:00,
2013-03-18 04:02:00,68.6,65.9,29.74,South,185,3.0,5.0,91,0.00,,---,0.00,VWS V14.01,2013-03-18 09:02:00,
2013-03-18 04:07:00,68.4,65.7,29.74,SSW,195,3.0,9.0,91,0.00,,---,0.00,VWS V14.01,2013-03-18 09:07:00,
2013-03-18 04:12:00,68.4,65.7,29.74,South,190,2.0,9.0,91,0.00,,---,0.00,VWS V14.01,2013-03-18 09:12:00,
2013-03-18 04:15:00,68.8,66.1,29.74,SW,229,0.0,5.0,91,0.00,,---,0.00,VWS V14.01,2013-03-18 09:15:00,
2013-03-18 04:17:00,68.6,65.9,29.73,SSW,196,4.0,11.0,91,0.00,,---,0.00,VWS V14.01,2013-03-18 09:17:00,
2013-03-18 04:22:00,68.6,65.9,29.73,South,188,5.0,11.0,91,0.00,,---,0.00,VWS V14.01,2013-03-18 09:22:00,
2013-03-18 04:28:00,68.6,65.9,29.73,SSW,201,1.0,11.0,91,0.00,,---,0.00,VWS V14.01,2013-03-18 09:28:00,
2013-03-18 04:30:00,68.8,66.1,29.72,South,170,3.0,9.0,91,0.00,,---,0.00,VWS V14.01,2013-03-18 09:30:00,
2013-03-18 04:33:00,68.6,65.9,29.73,SSW,206,3.0,5.0,91,0.00,,---,0.00,VWS V14.01,2013-03-18 09:33:00,
2013-03-18 04:38:00,68.6,65.9,29.73,South,180,3.0,5.0,91,0.00,,---,0.00,VWS V14.01,2013-03-18 09:38:00,
2013-03-18 04:43:00,68.6,65.9,29.73,South,180,0.0,5.0,91,0.00,,---,0.00,VWS V14.01,2013-03-18 09:43:00,
2013-03-18 04:45:00,68.4,65.7,29.74,SSW,198,0.0,5.0,91,0.00,,---,0.00,VWS V14.01,2013-03-18 09:45:00,
2013-03-18 04:48:00,68.6,65.9,29.73,SSW,197,0.0,0.0,91,0.00,,---,0.00,VWS V14.01,2013-03-18 09:48:00,
2013-03-18 04:53:00,68.6,65.9,29.73,SSW,209,0.0,0.0,91,0.00,,---,0.00,VWS V14.01,2013-03-18 09:53:00,
2013-03-18 04:58:00,68.8,66.1,29.73,South,187,4.0,4.0,91,0.00,,---,0.00,VWS V14.01,2013-03-18 09:58:00,
2013-03-18 05:00:00,68.4,66.0,29.75,SSW,202,0.0,0.0,92,0.00,,---,0.00,VWS V14.01,2013-03-18 10:00:00,
2013-03-18 05:03:00,68.8,66.1,29.73,South,188,0.0,5.0,91,0.00,,---,0.00,VWS V14.01,2013-03-18 10:03:00,
2013-03-18 05:08:00,68.8,66.1,29.73,SSW,196,0.0,5.0,91,0.00,,---,0.00,VWS V14.01,2013-03-18 10:08:00,
2013-03-18 05:13:00,68.8,66.1,29.74,SW,229,0.0,5.0,91,0.00,,---,0.00,VWS V14.01,2013-03-18 10:13:00,
2013-03-18 05:15:00,68.4,66.0,29.74,South,191,2.0,8.0,92,0.00,,---,0.00,VWS V14.01,2013-03-18 10:15:00,
2013-03-18 05:18:00,68.8,66.1,29.74,SSW,198,6.0,9.0,91,0.00,,---,0.00,VWS V14.01,2013-03-18 10:18:00,
2013-03-18 05:23:00,68.9,66.2,29.74,South,169,3.0,9.0,91,0.00,,---,0.00,VWS V14.01,2013-03-18 10:23:00,
2013-03-18 05:28:00,68.8,66.1,29.72,SSE,166,4.0,9.0,91,0.00,,---,0.00,VWS V14.01,2013-03-18 10:28:00,
2013-03-18 05:30:00,68.6,66.2,29.74,SSW,200,5.0,9.0,92,0.00,,---,0.00,VWS V14.01,2013-03-18 10:30:00,
2013-03-18 05:33:00,68.6,65.9,29.72,SSW,204,0.0,5.0,91,0.00,,---,0.00,VWS V14.01,2013-03-18 10:33:00,
2013-03-18 05:38:00,68.4,65.7,29.72,SSW,204,0.0,5.0,91,0.00,,---,0.00,VWS V14.01,2013-03-18 10:38:00,
2013-03-18 05:43:00,68.4,65.7,29.74,SSW,198,0.0,5.0,91,0.00,,---,0.00,VWS V14.01,2013-03-18 10:43:00,
2013-03-18 05:45:00,68.8,66.1,29.75,SSW,205,0.0,10.0,91,0.00,,---,0.00,VWS V14.01,2013-03-18 10:45:00,
2013-03-18 05:48:00,68.4,66.0,29.74,SSW,198,0.0,0.0,92,0.00,,---,0.00,VWS V14.01,2013-03-18 10:48:00,
2013-03-18 05:53:00,68.4,66.0,29.74,SSW,198,0.0,0.0,92,0.00,,---,0.00,VWS V14.01,2013-03-18 10:53:00,
2013-03-18 05:58:00,68.4,66.0,29.75,SSW,202,0.0,0.0,92,0.00,,---,0.00,VWS V14.01,2013-03-18 10:58:00,
2013-03-18 06:00:00,69.1,66.1,29.76,SW,225,0.0,6.0,90,0.00,,---,0.00,VWS V14.01,2013-03-18 11:00:00,
2013-03-18 06:03:00,68.6,66.2,29.75,SSW,213,7.0,8.0,92,0.00,,---,0.00,VWS V14.01,2013-03-18 11:03:00,
2013-03-18 06:08:00,68.6,66.2,29.75,SSW,206,3.0,8.0,92,0.00,,---,0.00,VWS V14.01,2013-03-18 11:08:00,
2013-03-18 06:13:00,68.4,66.0,29.74,South,191,3.0,8.0,92,0.00,,---,0.00,VWS V14.01,2013-03-18 11:13:00,
2013-03-18 06:15:00,69.1,66.1,29.78,SW,234,6.0,11.0,90,0.00,,---,0.00,VWS V14.01,2013-03-18 11:15:00,
2013-03-18 06:19:00,68.4,66.0,29.74,SSW,203,4.0,7.0,92,0.00,,---,0.00,VWS V14.01,2013-03-18 11:19:00,
2013-03-18 06:24:00,68.6,66.2,29.74,SSW,192,6.0,7.0,92,0.00,,---,0.00,VWS V14.01,2013-03-18 11:24:00,
2013-03-18 06:29:00,68.6,66.2,29.74,SSW,205,5.0,9.0,92,0.00,,---,0.00,VWS V14.01,2013-03-18 11:29:00,
2013-03-18 06:30:00,69.3,66.2,29.78,SSW,195,0.0,6.0,90,0.00,,---,0.00,VWS V14.01,2013-03-18 11:30:00,
2013-03-18 06:34:00,68.6,65.9,29.74,SSW,205,10.0,10.0,91,0.00,,---,0.00,VWS V14.01,2013-03-18 11:34:00,
2013-03-18 06:39:00,68.8,66.1,29.74,SSW,199,4.0,10.0,91,0.00,,---,0.00,VWS V14.01,2013-03-18 11:39:00,
2013-03-18 06:44:00,68.8,66.1,29.75,SSW,205,0.0,10.0,91,0.00,,---,0.00,VWS V14.01,2013-03-18 11:44:00,
2013-03-18 06:45:00,69.1,66.1,29.78,South,190,2.0,6.0,90,0.00,,---,0.00,VWS V14.01,2013-03-18 11:45:00,
2013-03-18 06:49:00,68.9,66.2,29.75,SSW,209,4.0,6.0,91,0.00,,---,0.00,VWS V14.01,2013-03-18 11:49:00,
2013-03-18 06:54:00,68.9,66.2,29.75,SSW,201,0.0,6.0,91,0.00,,---,0.00,VWS V14.01,2013-03-18 11:54:00,
2013-03-18 06:59:00,69.1,66.1,29.76,SW,225,0.0,0.0,90,0.00,,---,0.00,VWS V14.01,2013-03-18 11:59:00,
2013-03-18 07:00:00,69.1,66.1,29.78,SSW,207,0.0,6.0,90,0.00,,---,0.00,VWS V14.01,2013-03-18 12:00:00,
2013-03-18 07:04:00,69.1,66.1,29.76,South,189,0.0,11.0,90,0.00,,---,0.00,VWS V14.01,2013-03-18 12:04:00,
2013-03-18 07:09:00,69.1,66.1,29.76,WSW,257,0.0,11.0,90,0.00,,---,0.00,VWS V14.01,2013-03-18 12:09:00,
2013-03-18 07:14:00,69.1,66.1,29.78,WSW,240,5.0,6.0,90,0.00,,---,0.00,VWS V14.01,2013-03-18 12:14:00,
2013-03-18 07:15:00,69.3,66.2,29.78,SW,230,0.0,5.0,90,0.00,,---,0.00,VWS V14.01,2013-03-18 12:15:00,
2013-03-18 07:19:00,69.1,66.1,29.78,West,259,0.0,6.0,90,0.00,,---,0.00,VWS V14.01,2013-03-18 12:19:00,
2013-03-18 07:24:00,69.3,66.2,29.78,WSW,244,0.0,6.0,90,0.00,,---,0.00,VWS V14.01,2013-03-18 12:24:00,
2013-03-18 07:29:00,69.3,66.2,29.78,SSW,195,0.0,0.0,90,0.00,,---,0.00,VWS V14.01,2013-03-18 12:29:00,
2013-03-18 07:30:00,69.4,66.3,29.79,SSW,192,0.0,4.0,90,0.00,,---,0.00,VWS V14.01,2013-03-18 12:30:00,
2013-03-18 07:34:00,69.1,66.1,29.78,SW,223,0.0,4.0,90,0.00,,---,0.00,VWS V14.01,2013-03-18 12:34:00,
2013-03-18 07:39:00,69.1,66.1,29.78,SSW,209,0.0,5.0,90,0.00,,---,0.00,VWS V14.01,2013-03-18 12:39:00,
2013-03-18 07:44:00,69.1,66.1,29.78,South,190,3.0,4.0,90,0.00,,---,0.00,VWS V14.01,2013-03-18 12:44:00,
2013-03-18 07:45:00,69.4,66.3,29.80,SSW,198,0.0,5.0,90,0.00,,---,0.00,VWS V14.01,2013-03-18 12:45:00,
2013-03-18 07:49:00,69.1,66.1,29.78,SSW,202,0.0,6.0,90,0.00,,---,0.00,VWS V14.01,2013-03-18 12:49:00,
2013-03-18 07:54:00,69.1,66.1,29.78,SSW,207,3.0,6.0,90,0.00,,---,0.00,VWS V14.01,2013-03-18 12:54:00,
2013-03-18 07:59:00,69.1,66.1,29.78,SSW,207,0.0,0.0,90,0.00,,---,0.00,VWS V14.01,2013-03-18 12:59:00,
2013-03-18 08:00:00,69.8,66.4,29.80,SSW,209,3.0,7.0,89,0.00,,---,0.00,VWS V14.01,2013-03-18 13:00:00,
2013-03-18 08:04:00,69.3,66.2,29.78,SSW,211,2.0,5.0,90,0.00,,---,0.00,VWS V14.01,2013-03-18 13:04:00,
2013-03-18 08:09:00,69.3,66.2,29.78,SSW,205,0.0,5.0,90,0.00,,---,0.00,VWS V14.01,2013-03-18 13:09:00,
2013-03-18 08:14:00,69.3,66.2,29.78,SW,230,0.0,0.0,90,0.00,,---,0.00,VWS V14.01,2013-03-18 13:14:00,
2013-03-18 08:15:00,70.3,66.6,29.79,SW,233,3.0,11.0,88,0.00,,---,0.00,VWS V14.01,2013-03-18 13:15:00,
2013-03-18 08:19:00,69.3,66.2,29.78,SSW,198,0.0,0.0,90,0.00,,---,0.00,VWS V14.01,2013-03-18 13:19:00,
2013-03-18 08:24:00,69.3,66.2,29.78,SSW,210,0.0,4.0,90,0.00,,---,0.00,VWS V14.01,2013-03-18 13:24:00,
2013-03-18 08:29:00,69.4,66.3,29.79,SSW,192,0.0,0.0,90,0.00,,---,0.00,VWS V14.01,2013-03-18 13:29:00,
2013-03-18 08:30:00,70.8,66.7,29.80,WSW,254,0.0,10.0,87,0.00,,---,0.00,VWS V14.01,2013-03-18 13:30:00,
2013-03-18 08:34:00,69.4,66.3,29.79,WSW,241,0.0,1.0,90,0.00,,---,0.00,VWS V14.01,2013-03-18 13:34:00,
2013-03-18 08:39:00,69.4,66.3,29.79,SW,220,0.0,1.0,90,0.00,,---,0.00,VWS V14.01,2013-03-18 13:39:00,
2013-03-18 08:44:00,69.6,66.5,29.80,SSW,198,3.0,6.0,90,0.00,,---,0.00,VWS V14.01,2013-03-18 13:44:00,
2013-03-18 08:45:00,71.6,66.9,29.80,SSW,211,4.0,10.0,85,0.00,,---,0.00,VWS V14.01,2013-03-18 13:45:00,
2013-03-18 08:49:00,69.6,66.2,29.80,SW,227,0.0,6.0,89,0.00,,---,0.00,VWS V14.01,2013-03-18 13:49:00,
2013-03-18 08:55:00,69.8,66.4,29.80,SSW,209,0.0,6.0,89,0.00,,---,0.00,VWS V14.01,2013-03-18 13:55:00,
2013-03-18 09:00:00,69.8,66.4,29.80,SSW,205,0.0,4.0,89,0.00,,---,0.00,VWS V14.01,2013-03-18 14:00:00,
2013-03-18 09:05:00,69.9,66.5,29.80,SW,221,4.0,5.0,89,0.00,,---,0.00,VWS V14.01,2013-03-18 14:05:00,
2013-03-18 09:10:00,70.1,66.4,29.80,SW,218,5.0,11.0,88,0.00,,---,0.00,VWS V14.01,2013-03-18 14:10:00,
2013-03-18 09:15:00,70.4,66.7,29.79,SSW,206,3.0,4.0,88,0.00,,---,0.00,VWS V14.01,2013-03-18 14:15:00,
2013-03-18 09:20:00,70.4,66.3,29.79,South,186,2.0,10.0,87,0.00,,---,0.00,VWS V14.01,2013-03-18 14:20:00,
2013-03-18 09:25:00,70.6,66.6,29.79,SW,227,4.0,10.0,87,0.00,,---,0.00,VWS V14.01,2013-03-18 14:25:00,
2013-03-18 09:30:00,70.9,66.8,29.80,SW,228,3.0,7.0,87,0.00,,---,0.00,VWS V14.01,2013-03-18 14:30:00,
2013-03-18 09:35:00,71.1,66.7,29.80,WSW,240,0.0,7.0,86,0.00,,---,0.00,VWS V14.01,2013-03-18 14:35:00,
2013-03-18 09:40:00,71.5,66.8,29.80,SSW,207,4.0,10.0,85,0.00,,---,0.00,VWS V14.01,2013-03-18 14:40:00,
2013-03-18 09:45:00,71.8,67.1,29.80,West,261,3.0,9.0,85,0.00,,---,0.00,VWS V14.01,2013-03-18 14:45:00,
2013-03-18 09:50:00,72.0,66.6,29.80,WSW,243,5.0,10.0,83,0.00,,---,0.00,VWS V14.01,2013-03-18 14:50:00,
2013-03-18 09:55:00,72.1,66.7,29.80,SSW,209,12.0,14.0,83,0.00,,---,0.00,VWS V14.01,2013-03-18 14:55:00,
2013-03-18 10:00:00,72.7,67.2,29.79,SW,219,4.0,5.0,83,0.00,,---,0.00,VWS V14.01,2013-03-18 15:00:00,
2013-03-18 10:05:00,73.0,66.5,29.79,SW,232,10.0,10.0,80,0.00,,---,0.00,VWS V14.01,2013-03-18 15:05:00,
2013-03-18 10:10:00,73.3,66.8,29.79,West,274,4.0,10.0,80,0.00,,---,0.00,VWS V14.01,2013-03-18 15:10:00,
2013-03-18 10:15:00,73.3,66.4,29.79,West,277,7.0,10.0,79,0.00,,---,0.00,VWS V14.01,2013-03-18 15:15:00,
2013-03-18 10:21:00,73.3,66.4,29.79,West,263,5.0,11.0,79,0.00,,---,0.00,VWS V14.01,2013-03-18 15:21:00,
2013-03-18 10:25:00,73.5,66.2,29.79,SSW,209,5.0,11.0,78,0.00,,---,0.00,VWS V14.01,2013-03-18 15:25:00,
2013-03-18 10:30:00,76.5,65.6,29.78,SSW,212,10.0,17.0,69,0.00,,---,0.00,VWS V14.01,2013-03-18 15:30:00,
2013-03-18 10:31:00,73.9,66.6,29.79,West,265,5.0,6.0,78,0.00,,---,0.00,VWS V14.01,2013-03-18 15:31:00,
2013-03-18 10:35:00,73.9,66.2,29.79,West,274,6.0,12.0,77,0.00,,---,0.00,VWS V14.01,2013-03-18 15:35:00,
2013-03-18 10:41:00,73.7,66.1,29.79,WNW,302,3.0,12.0,77,0.00,,---,0.00,VWS V14.01,2013-03-18 15:41:00,
2013-03-18 10:45:00,76.7,65.3,29.78,West,260,10.0,14.0,68,0.00,,---,0.00,VWS V14.01,2013-03-18 15:45:00,
2013-03-18 10:46:00,73.9,66.2,29.79,SW,228,3.0,4.0,77,0.00,,---,0.00,VWS V14.01,2013-03-18 15:46:00,
2013-03-18 10:51:00,74.0,66.0,29.79,WSW,256,0.0,6.0,76,0.00,,---,0.00,VWS V14.01,2013-03-18 15:51:00,
2013-03-18 10:56:00,74.2,65.8,29.79,WSW,241,3.0,9.0,75,0.00,,---,0.00,VWS V14.01,2013-03-18 15:56:00,
2013-03-18 11:00:00,78.1,65.8,29.78,SW,225,5.0,14.0,66,0.00,,---,0.00,VWS V14.01,2013-03-18 16:00:00,
2013-03-18 11:01:00,74.6,65.8,29.79,SW,221,3.0,10.0,74,0.00,,---,0.00,VWS V14.01,2013-03-18 16:01:00,
2013-03-18 11:06:00,74.7,65.9,29.79,WSW,244,4.0,14.0,74,0.00,,---,0.00,VWS V14.01,2013-03-18 16:06:00,
2013-03-18 11:11:00,75.1,66.2,29.79,WSW,254,6.0,14.0,74,0.00,,---,0.00,VWS V14.01,2013-03-18 16:11:00,
2013-03-18 11:15:00,77.6,65.8,29.77,West,277,3.0,15.0,67,0.00,,---,0.00,VWS V14.01,2013-03-18 16:15:00,
2013-03-18 11:16:00,75.6,65.9,29.78,SW,218,4.0,13.0,72,0.00,,---,0.00,VWS V14.01,2013-03-18 16:16:00,
2013-03-18 11:21:00,76.0,65.9,29.78,SSW,203,10.0,13.0,71,0.00,,---,0.00,VWS V14.01,2013-03-18 16:21:00,
2013-03-18 11:27:00,76.5,66.0,29.78,SSW,213,14.0,17.0,70,0.00,,---,0.00,VWS V14.01,2013-03-18 16:27:00,
2013-03-18 11:30:00,78.3,65.6,29.76,SW,232,3.0,14.0,65,0.00,,---,0.00,VWS V14.01,2013-03-18 16:30:00,
2013-03-18 11:32:00,76.5,66.0,29.78,SSW,209,6.0,12.0,70,0.00,,---,0.00,VWS V14.01,2013-03-18 16:32:00,
2013-03-18 11:37:00,76.8,65.0,29.78,WSW,240,8.0,14.0,67,0.00,,---,0.00,VWS V14.01,2013-03-18 16:37:00,
2013-03-18 11:42:00,76.7,65.3,29.78,SW,235,3.0,14.0,68,0.00,,---,0.00,VWS V14.01,2013-03-18 16:42:00,
2013-03-18 11:45:00,80.1,64.5,29.76,WSW,250,2.0,17.0,59,0.00,,---,0.00,VWS V14.01,2013-03-18 16:45:00,
2013-03-18 11:47:00,76.7,65.3,29.78,SSW,194,6.0,12.0,68,0.00,,---,0.00,VWS V14.01,2013-03-18 16:47:00,
2013-03-18 11:52:00,77.2,65.0,29.78,SSW,211,5.0,14.0,66,0.00,,---,0.00,VWS V14.01,2013-03-18 16:52:00,
2013-03-18 11:57:00,77.7,65.4,29.78,SW,228,5.0,14.0,66,0.00,,---,0.00,VWS V14.01,2013-03-18 16:57:00,
2013-03-18 12:00:00,80.1,64.5,29.76,SW,222,1.0,13.0,59,0.00,,---,0.00,VWS V14.01,2013-03-18 17:00:00,
2013-03-18 12:02:00,78.1,64.9,29.78,West,275,9.0,15.0,64,0.00,,---,0.00,VWS V14.01,2013-03-18 17:02:00,
2013-03-18 12:07:00,77.9,65.6,29.78,SW,236,3.0,15.0,66,0.00,,---,0.00,VWS V14.01,2013-03-18 17:07:00,
2013-03-18 12:12:00,77.6,65.3,29.78,WSW,251,2.0,15.0,66,0.00,,---,0.00,VWS V14.01,2013-03-18 17:12:00,
2013-03-18 12:15:00,79.6,64.0,29.75,South,184,0.0,15.0,59,0.00,,---,0.00,VWS V14.01,2013-03-18 17:15:00,
2013-03-18 12:17:00,77.6,64.9,29.77,WSW,240,0.0,14.0,65,0.00,,---,0.00,VWS V14.01,2013-03-18 17:17:00,
2013-03-18 12:23:00,77.6,64.9,29.77,WSW,249,12.0,14.0,65,0.00,,---,0.00,VWS V14.01,2013-03-18 17:23:00,
2013-03-18 12:28:00,78.1,65.4,29.77,WSW,240,1.0,14.0,65,0.00,,---,0.00,VWS V14.01,2013-03-18 17:28:00,
2013-03-18 12:30:00,80.1,64.5,29.74,SW,216,0.0,13.0,59,0.00,,---,0.00,VWS V14.01,2013-03-18 17:30:00,
2013-03-18 12:33:00,79.0,64.9,29.76,SSW,209,1.0,17.0,62,0.00,,---,0.00,VWS V14.01,2013-03-18 17:33:00,
2013-03-18 12:38:00,79.6,65.0,29.76,SW,227,0.0,17.0,61,0.00,,---,0.00,VWS V14.01,2013-03-18 17:38:00,
2013-03-18 12:43:00,80.1,65.0,29.76,SW,219,4.0,17.0,60,0.00,,---,0.00,VWS V14.01,2013-03-18 17:43:00,
2013-03-18 12:45:00,81.1,64.9,29.73,South,171,4.0,15.0,58,0.00,,---,0.00,VWS V14.01,2013-03-18 17:45:00,
2013-03-18 12:48:00,80.1,65.0,29.76,South,180,7.0,9.0,60,0.00,,---,0.00,VWS V14.01,2013-03-18 17:48:00,
2013-03-18 12:53:00,79.8,65.2,29.76,West,279,13.0,13.0,61,0.00,,---,0.00,VWS V14.01,2013-03-18 17:53:00,
2013-03-18 12:58:00,80.1,64.0,29.76,SW,235,3.0,13.0,58,0.00,,---,0.00,VWS V14.01,2013-03-18 17:58:00,
2013-03-18 13:00:00,80.7,63.6,29.73,SSW,198,3.0,15.0,56,0.00,,---,0.00,VWS V14.01,2013-03-18 18:00:00,
2013-03-18 13:03:00,80.3,65.2,29.76,WSW,238,0.0,11.0,60,0.00,,---,0.00,VWS V14.01,2013-03-18 18:03:00,
2013-03-18 13:08:00,80.1,64.5,29.76,SSW,211,3.0,13.0,59,0.00,,---,0.00,VWS V14.01,2013-03-18 18:08:00,
2013-03-18 13:13:00,79.6,64.0,29.75,West,265,1.0,15.0,59,0.00,,---,0.00,VWS V14.01,2013-03-18 18:13:00,
2013-03-18 13:15:00,81.8,63.5,29.72,South,182,6.0,13.0,54,0.00,,---,0.00,VWS V14.01,2013-03-18 18:15:00,
2013-03-18 13:18:00,79.6,64.0,29.75,West,263,10.0,13.0,59,0.00,,---,0.00,VWS V14.01,2013-03-18 18:18:00,
2013-03-18 13:23:00,79.8,63.7,29.75,SW,216,5.0,13.0,58,0.00,,---,0.00,VWS V14.01,2013-03-18 18:23:00,
2013-03-18 13:28:00,80.1,64.5,29.74,SW,217,0.0,13.0,59,0.00,,---,0.00,VWS V14.01,2013-03-18 18:28:00,
2013-03-18 13:30:00,81.8,64.6,29.71,SSW,207,7.0,13.0,56,0.00,,---,0.00,VWS V14.01,2013-03-18 18:30:00,
2013-03-18 13:33:00,80.7,63.6,29.74,SSW,205,2.0,15.0,56,0.00,,---,0.00,VWS V14.01,2013-03-18 18:33:00,
2013-03-18 13:39:00,81.4,63.7,29.74,SW,235,5.0,15.0,55,0.00,,---,0.00,VWS V14.01,2013-03-18 18:39:00,
2013-03-18 13:44:00,81.1,64.9,29.73,South,178,7.0,15.0,58,0.00,,---,0.00,VWS V14.01,2013-03-18 18:44:00,
2013-03-18 13:45:00,82.6,64.3,29.70,South,190,0.0,11.0,54,0.00,,---,0.00,VWS V14.01,2013-03-18 18:45:00,
2013-03-18 13:49:00,81.1,64.4,29.73,SSW,198,2.0,12.0,57,0.00,,---,0.00,VWS V14.01,2013-03-18 18:49:00,
2013-03-18 13:54:00,81.1,64.4,29.73,SSW,204,6.0,15.0,57,0.00,,---,0.00,VWS V14.01,2013-03-18 18:54:00,
2013-03-18 13:59:00,80.7,63.6,29.73,SSW,200,5.0,5.0,56,0.00,,---,0.00,VWS V14.01,2013-03-18 18:59:00,
2013-03-18 14:00:00,81.8,64.1,29.70,SW,221,8.0,13.0,55,0.00,,---,0.00,VWS V14.01,2013-03-18 19:00:00,
2013-03-18 14:04:00,81.1,64.9,29.73,South,190,0.0,13.0,58,0.00,,---,0.00,VWS V14.01,2013-03-18 19:04:00,
2013-03-18 14:09:00,81.8,64.6,29.73,SSW,205,0.0,13.0,56,0.00,,---,0.00,VWS V14.01,2013-03-18 19:09:00,
2013-03-18 14:14:00,81.6,63.4,29.72,SSW,213,4.0,6.0,54,0.00,,---,0.00,VWS V14.01,2013-03-18 19:14:00,
2013-03-18 14:15:00,82.2,64.4,29.70,SSW,207,3.0,12.0,55,0.00,,---,0.00,VWS V14.01,2013-03-18 19:15:00,
2013-03-18 14:19:00,81.4,64.2,29.72,SW,216,11.0,13.0,56,0.00,,---,0.00,VWS V14.01,2013-03-18 19:19:00,
2013-03-18 14:24:00,81.6,64.4,29.72,SW,236,8.0,13.0,56,0.00,,---,0.00,VWS V14.01,2013-03-18 19:24:00,
2013-03-18 14:29:00,81.8,64.6,29.71,South,186,5.0,7.0,56,0.00,,---,0.00,VWS V14.01,2013-03-18 19:29:00,
2013-03-18 14:30:00,82.8,63.4,29.69,WSW,240,6.0,10.0,52,0.00,,---,0.00,VWS V14.01,2013-03-18 19:30:00,
2013-03-18 14:34:00,81.4,65.2,29.71,SSW,197,4.0,11.0,58,0.00,,---,0.00,VWS V14.01,2013-03-18 19:34:00,
2013-03-18 14:39:00,82.0,64.8,29.71,SSW,213,0.0,11.0,56,0.00,,---,0.00,VWS V14.01,2013-03-18 19:39:00,
2013-03-18 14:44:00,82.6,64.3,29.70,WSW,241,10.0,10.0,54,0.00,,---,0.00,VWS V14.01,2013-03-18 19:44:00,
2013-03-18 14:45:00,82.4,63.6,29.69,SW,216,0.0,20.0,53,0.00,,---,0.00,VWS V14.01,2013-03-18 19:45:00,
2013-03-18 14:49:00,82.4,64.1,29.70,SSW,205,4.0,13.0,54,0.00,,---,0.00,VWS V14.01,2013-03-18 19:49:00,
2013-03-18 14:55:00,82.0,64.8,29.70,WSW,254,4.0,13.0,56,0.00,,---,0.00,VWS V14.01,2013-03-18 19:55:00,
2013-03-18 15:00:00,81.8,63.5,29.70,South,179,2.0,8.0,54,0.00,,---,0.00,VWS V14.01,2013-03-18 20:00:00,
2013-03-18 15:05:00,81.6,63.9,29.70,South,190,9.0,12.0,55,0.00,,---,0.00,VWS V14.01,2013-03-18 20:05:00,
2013-03-18 15:10:00,81.4,63.7,29.70,SW,227,9.0,12.0,55,0.00,,---,0.00,VWS V14.01,2013-03-18 20:10:00,
2013-03-18 15:15:00,82.2,63.9,29.70,SW,223,1.0,10.0,54,0.00,,---,0.00,VWS V14.01,2013-03-18 20:15:00,
2013-03-18 15:20:00,82.6,64.3,29.70,SW,226,1.0,10.0,54,0.00,,---,0.00,VWS V14.01,2013-03-18 20:20:00,
2013-03-18 15:25:00,83.0,64.1,29.70,SW,234,2.0,10.0,53,0.00,,---,0.00,VWS V14.01,2013-03-18 20:25:00,
2013-03-18 15:30:00,82.8,64.5,29.69,SW,226,0.0,6.0,54,0.00,,---,0.00,VWS V14.01,2013-03-18 20:30:00,
2013-03-18 15:35:00,82.8,63.4,29.69,West,269,4.0,20.0,52,0.00,,---,0.00,VWS V14.01,2013-03-18 20:35:00,
2013-03-18 15:40:00,82.6,62.7,29.69,WSW,244,9.0,20.0,51,0.00,,---,0.00,VWS V14.01,2013-03-18 20:40:00,
2013-03-18 15:45:00,82.6,64.3,29.69,SSW,205,0.0,0.0,54,0.00,,---,0.00,VWS V14.01,2013-03-18 20:45:00,
2013-03-18 15:50:00,83.0,64.1,29.69,West,259,0.0,9.0,53,0.00,,---,0.00,VWS V14.01,2013-03-18 20:50:00,
2013-03-18 15:55:00,82.8,63.9,29.69,West,273,6.0,14.0,53,0.00,,---,0.00,VWS V14.01,2013-03-18 20:55:00,
2013-03-18 16:00:00,82.6,63.8,29.68,SSW,202,0.0,6.0,53,0.00,,---,0.00,VWS V14.01,2013-03-18 21:00:00,
2013-03-18 16:05:00,83.0,64.7,29.68,SW,217,5.0,10.0,54,0.00,,---,0.00,VWS V14.01,2013-03-18 21:05:00,
2013-03-18 16:10:00,83.2,64.3,29.68,SW,234,7.0,10.0,53,0.00,,---,0.00,VWS V14.01,2013-03-18 21:10:00,
2013-03-18 16:15:00,83.2,64.3,29.68,West,277,7.0,7.0,53,0.00,,---,0.00,VWS V14.01,2013-03-18 21:15:00,
2013-03-18 16:20:00,82.8,63.9,29.68,SSW,210,5.0,14.0,53,0.00,,---,0.00,VWS V14.01,2013-03-18 21:20:00,
2013-03-18 16:25:00,83.2,63.2,29.68,SW,227,0.0,14.0,51,0.00,,---,0.00,VWS V14.01,2013-03-18 21:25:00,
2013-03-18 16:30:00,82.6,64.3,29.68,WSW,242,0.0,14.0,54,0.00,,---,0.00,VWS V14.01,2013-03-18 21:30:00,
2013-03-18 16:31:00,83.4,64.0,29.68,WSW,244,0.0,10.0,52,0.00,,---,0.00,VWS V14.01,2013-03-18 21:31:00,
2013-03-18 16:36:00,83.0,63.6,29.68,SW,215,9.0,10.0,52,0.00,,---,0.00,VWS V14.01,2013-03-18 21:36:00,
2013-03-18 16:41:00,82.8,63.9,29.68,SW,231,4.0,11.0,53,0.00,,---,0.00,VWS V14.01,2013-03-18 21:41:00,
2013-03-18 16:45:00,82.2,64.4,29.68,SW,225,0.0,7.0,55,0.00,,---,0.00,VWS V14.01,2013-03-18 21:45:00,
2013-03-18 16:46:00,83.0,64.7,29.68,SW,225,0.0,4.0,54,0.00,,---,0.00,VWS V14.01,2013-03-18 21:46:00,
2013-03-18 16:51:00,82.8,63.9,29.68,SSW,205,5.0,7.0,53,0.00,,---,0.00,VWS V14.01,2013-03-18 21:51:00,
2013-03-18 16:57:00,82.8,63.4,29.68,SW,229,0.0,9.0,52,0.00,,---,0.00,VWS V14.01,2013-03-18 21:57:00,
2013-03-18 17:00:00,81.8,63.0,29.68,West,270,2.0,10.0,53,0.00,,---,0.00,VWS V14.01,2013-03-18 22:00:00,
2013-03-18 17:02:00,83.0,64.1,29.68,WSW,254,0.0,7.0,53,0.00,,---,0.00,VWS V14.01,2013-03-18 22:02:00,
2013-03-18 17:07:00,83.0,63.6,29.68,WSW,237,3.0,9.0,52,0.00,,---,0.00,VWS V14.01,2013-03-18 22:07:00,
2013-03-18 17:12:00,82.2,63.4,29.68,SW,224,0.0,13.0,53,0.00,,---,0.00,VWS V14.01,2013-03-18 22:12:00,
2013-03-18 17:15:00,81.1,63.9,29.68,SSW,213,0.0,10.0,56,0.00,,---,0.00,VWS V14.01,2013-03-18 22:15:00,
2013-03-18 17:17:00,82.6,64.3,29.68,SW,223,0.0,0.0,54,0.00,,---,0.00,VWS V14.01,2013-03-18 22:17:00,
2013-03-18 17:22:00,83.0,63.6,29.68,WSW,250,0.0,10.0,52,0.00,,---,0.00,VWS V14.01,2013-03-18 22:22:00,
2013-03-18 17:27:00,82.6,63.8,29.68,WSW,246,8.0,14.0,53,0.00,,---,0.00,VWS V14.01,2013-03-18 22:27:00,
2013-03-18 17:30:00,80.9,63.8,29.68,SSW,213,0.0,11.0,56,0.00,,---,0.00,VWS V14.01,2013-03-18 22:30:00,
2013-03-18 17:32:00,82.2,63.9,29.68,WSW,258,0.0,7.0,54,0.00,,---,0.00,VWS V14.01,2013-03-18 22:32:00,
2013-03-18 17:37:00,82.4,64.6,29.68,West,269,0.0,7.0,55,0.00,,---,0.00,VWS V14.01,2013-03-18 22:37:00,
2013-03-18 17:42:00,82.4,64.1,29.68,South,174,0.0,7.0,54,0.00,,---,0.00,VWS V14.01,2013-03-18 22:42:00,
2013-03-18 17:45:00,79.9,63.3,29.68,WSW,250,0.0,5.0,57,0.00,,---,0.00,VWS V14.01,2013-03-18 22:45:00,
2013-03-18 17:47:00,82.4,64.1,29.68,SW,216,0.0,1.0,54,0.00,,---,0.00,VWS V14.01,2013-03-18 22:47:00,
2013-03-18 17:52:00,82.2,63.9,29.68,South,178,0.0,10.0,54,0.00,,---,0.00,VWS V14.01,2013-03-18 22:52:00,
2013-03-18 17:57:00,81.8,63.0,29.68,WSW,239,0.0,10.0,53,0.00,,---,0.00,VWS V14.01,2013-03-18 22:57:00,
2013-03-18 18:00:00,78.8,63.8,29.68,SW,215,0.0,7.0,60,0.00,,---,0.00,VWS V14.01,2013-03-18 23:00:00,
2013-03-18 18:02:00,81.4,63.2,29.68,West,275,6.0,10.0,54,0.00,,---,0.00,VWS V14.01,2013-03-18 23:02:00,
2013-03-18 18:07:00,81.2,63.0,29.68,WSW,255,9.0,10.0,54,0.00,,---,0.00,VWS V14.01,2013-03-18 23:07:00,
2013-03-18 18:12:00,81.2,63.5,29.68,SW,232,1.0,10.0,55,0.00,,---,0.00,VWS V14.01,2013-03-18 23:12:00,
2013-03-18 18:15:00,77.7,63.7,29.68,SSW,209,1.0,5.0,62,0.00,,---,0.00,VWS V14.01,2013-03-18 23:15:00,
2013-03-18 18:17:00,81.1,63.9,29.68,WSW,249,4.0,9.0,56,0.00,,---,0.00,VWS V14.01,2013-03-18 23:17:00,
2013-03-18 18:23:00,81.1,63.9,29.68,SW,227,0.0,11.0,56,0.00,,---,0.00,VWS V14.01,2013-03-18 23:23:00,
2013-03-18 18:28:00,80.9,63.8,29.68,SSE,165,0.0,11.0,56,0.00,,---,0.00,VWS V14.01,2013-03-18 23:28:00,
2013-03-18 18:30:00,76.8,63.7,29.69,West,261,0.0,4.0,64,0.00,,---,0.00,VWS V14.01,2013-03-18 23:30:00,
2013-03-18 18:33:00,80.7,63.6,29.68,SW,229,0.0,0.0,56,0.00,,---,0.00,VWS V14.01,2013-03-18 23:33:00,
2013-03-18 18:38:00,80.3,63.2,29.68,WSW,254,0.0,1.0,56,0.00,,---,0.00,VWS V14.01,2013-03-18 23:38:00,
2013-03-18 18:43:00,80.1,63.5,29.68,WSW,250,0.0,5.0,57,0.00,,---,0.00,VWS V14.01,2013-03-18 23:43:00,
2013-03-18 18:45:00,75.8,63.6,29.69,WSW,243,0.0,5.0,66,0.00,,---,0.00,VWS V14.01,2013-03-18 23:45:00,
2013-03-18 18:48:00,79.6,63.5,29.68,WSW,257,0.0,7.0,58,0.00,,---,0.00,VWS V14.01,2013-03-18 23:48:00,
2013-03-18 18:53:00,79.2,63.7,29.68,SW,215,0.0,7.0,59,0.00,,---,0.00,VWS V14.01,2013-03-18 23:53:00,
2013-03-18 18:58:00,79.0,63.9,29.68,SW,215,0.0,7.0,60,0.00,,---,0.00,VWS V14.01,2013-03-18 23:58:00,
2013-03-18 19:00:00,75.3,64.0,29.70,WSW,243,0.0,4.0,68,0.00,,---,0.00,VWS V14.01,2013-03-19 00:00:00,
2013-03-18 19:03:00,78.6,64.0,29.68,SW,215,0.0,0.0,61,0.00,,---,0.00,VWS V14.01,2013-03-19 00:03:00,
2013-03-18 19:08:00,78.1,64.0,29.68,SSW,207,0.0,5.0,62,0.00,,---,0.00,VWS V14.01,2013-03-19 00:08:00,
2013-03-18 19:13:00,77.7,63.7,29.68,SSW,213,0.0,5.0,62,0.00,,---,0.00,VWS V14.01,2013-03-19 00:13:00,
2013-03-18 19:15:00,75.1,63.8,29.71,West,259,0.0,6.0,68,0.00,,---,0.00,VWS V14.01,2013-03-19 00:15:00,
2013-03-18 19:18:00,77.4,63.8,29.68,West,266,0.0,4.0,63,0.00,,---,0.00,VWS V14.01,2013-03-19 00:18:00,
2013-03-18 19:23:00,77.2,63.6,29.68,West,260,0.0,4.0,63,0.00,,---,0.00,VWS V14.01,2013-03-19 00:23:00,
2013-03-18 19:28:00,76.8,63.7,29.69,West,261,0.0,4.0,64,0.00,,---,0.00,VWS V14.01,2013-03-19 00:28:00,
2013-03-18 19:30:00,74.4,64.0,29.72,WSW,254,0.0,1.0,70,0.00,,---,0.00,VWS V14.01,2013-03-19 00:30:00,
2013-03-18 19:33:00,76.5,63.9,29.69,West,261,0.0,0.0,65,0.00,,---,0.00,VWS V14.01,2013-03-19 00:33:00,
2013-03-18 19:39:00,76.1,63.9,29.69,SW,232,0.0,5.0,66,0.00,,---,0.00,VWS V14.01,2013-03-19 00:39:00,
2013-03-18 19:44:00,75.8,63.6,29.69,WSW,243,0.0,5.0,66,0.00,,---,0.00,VWS V14.01,2013-03-19 00:44:00,
2013-03-18 19:45:00,73.7,63.7,29.73,WSW,254,0.0,0.0,71,0.00,,---,0.00,VWS V14.01,2013-03-19 00:45:00,
2013-03-18 19:49:00,75.6,63.9,29.69,WSW,243,0.0,0.0,67,0.00,,---,0.00,VWS V14.01,2013-03-19 00:49:00,
2013-03-18 19:54:00,75.3,63.6,29.69,SSW,211,0.0,4.0,67,0.00,,---,0.00,VWS V14.01,2013-03-19 00:54:00,
2013-03-18 19:59:00,75.3,64.0,29.70,WSW,243,0.0,0.0,68,0.00,,---,0.00,VWS V14.01,2013-03-19 00:59:00,
2013-03-18 20:00:00,72.5,63.8,29.75,SW,231,0.0,2.0,74,0.00,,---,0.00,VWS V14.01,2013-03-19 01:00:00,
2013-03-18 20:04:00,75.3,64.0,29.70,SW,234,0.0,1.0,68,0.00,,---,0.00,VWS V14.01,2013-03-19 01:04:00,
2013-03-18 20:09:00,75.3,64.0,29.70,West,259,0.0,6.0,68,0.00,,---,0.00,VWS V14.01,2013-03-19 01:09:00,
2013-03-18 20:14:00,75.1,63.8,29.71,West,259,0.0,0.0,68,0.00,,---,0.00,VWS V14.01,2013-03-19 01:14:00,
2013-03-18 20:15:00,72.3,63.9,29.76,West,260,0.0,5.0,75,0.00,,---,0.00,VWS V14.01,2013-03-19 01:15:00,
2013-03-18 20:19:00,74.9,64.1,29.71,West,259,0.0,0.0,69,0.00,,---,0.00,VWS V14.01,2013-03-19 01:19:00,
2013-03-18 20:24:00,74.6,64.2,29.71,WSW,254,0.0,1.0,70,0.00,,---,0.00,VWS V14.01,2013-03-19 01:24:00,
2013-03-18 20:29:00,74.4,64.0,29.72,WSW,254,0.0,0.0,70,0.00,,---,0.00,VWS V14.01,2013-03-19 01:29:00,
2013-03-18 20:30:00,72.3,63.9,29.76,West,265,4.0,4.0,75,0.00,,---,0.00,VWS V14.01,2013-03-19 01:30:00,
2013-03-18 20:34:00,74.2,64.2,29.72,WSW,254,0.0,0.0,71,0.00,,---,0.00,VWS V14.01,2013-03-19 01:34:00,
2013-03-18 20:39:00,73.9,63.9,29.72,WSW,254,0.0,0.0,71,0.00,,---,0.00,VWS V14.01,2013-03-19 01:39:00,
2013-03-18 20:44:00,73.7,63.7,29.73,WSW,254,0.0,0.0,71,0.00,,---,0.00,VWS V14.01,2013-03-19 01:44:00,
2013-03-18 20:45:00,71.6,63.6,29.80,NNE,19,19.0,22.0,76,0.00,,---,0.00,VWS V14.01,2013-03-19 01:45:00,
2013-03-18 20:49:00,73.3,63.7,29.73,WSW,254,0.0,0.0,72,0.00,,---,0.00,VWS V14.01,2013-03-19 01:49:00,
2013-03-18 20:54:00,72.8,63.7,29.73,WSW,258,0.0,2.0,73,0.00,,---,0.00,VWS V14.01,2013-03-19 01:54:00,
2013-03-18 20:59:00,72.5,63.8,29.75,SW,231,0.0,0.0,74,0.00,,---,0.00,VWS V14.01,2013-03-19 01:59:00,
2013-03-18 21:00:00,71.3,60.2,29.81,ENE,60,3.0,19.0,68,0.00,,---,0.00,VWS V14.01,2013-03-19 02:00:00,
2013-03-18 21:04:00,72.3,63.9,29.75,WSW,254,3.0,5.0,75,0.00,,---,0.00,VWS V14.01,2013-03-19 02:04:00,
2013-03-18 21:10:00,72.3,63.9,29.75,WSW,257,0.0,5.0,75,0.00,,---,0.00,VWS V14.01,2013-03-19 02:10:00,
2013-03-18 21:15:00,72.3,63.9,29.76,West,260,0.0,0.0,75,0.00,,---,0.00,VWS V14.01,2013-03-19 02:15:00,
2013-03-18 21:20:00,72.5,64.1,29.76,West,259,0.0,0.0,75,0.00,,---,0.00,VWS V14.01,2013-03-19 02:20:00,
2013-03-18 21:25:00,72.3,63.9,29.76,WSW,242,0.0,3.0,75,0.00,,---,0.00,VWS V14.01,2013-03-19 02:25:00,
2013-03-18 21:30:00,72.3,63.9,29.76,West,267,0.0,4.0,75,0.00,,---,0.00,VWS V14.01,2013-03-19 02:30:00,
2013-03-18 21:35:00,72.0,64.0,29.76,West,267,0.0,4.0,76,0.00,,---,0.00,VWS V14.01,2013-03-19 02:35:00,
2013-03-18 21:40:00,71.6,64.4,29.76,NNE,13,7.0,10.0,78,0.00,,---,0.00,VWS V14.01,2013-03-19 02:40:00,
2013-03-18 21:45:00,71.6,61.7,29.80,NE,46,15.0,19.0,71,0.00,,---,0.00,VWS V14.01,2013-03-19 02:45:00,
2013-03-18 21:50:00,71.8,60.7,29.80,NNE,24,9.0,19.0,68,0.00,,---,0.00,VWS V14.01,2013-03-19 02:50:00,
2013-03-18 21:55:00,71.6,60.5,29.80,North,5,12.0,19.0,68,0.00,,---,0.00,VWS V14.01,2013-03-19 02:55:00,
2013-03-18 22:00:00,71.1,60.4,29.81,ENE,72,3.0,5.0,69,0.00,,---,0.00,VWS V14.01,2013-03-19 03:00:00,
2013-03-18 22:01:00,67.1,61.4,29.84,NNE,14,5.0,6.0,82,0.00,,---,0.00,VWS V14.01,2013-03-19 03:01:00,
2013-03-18 22:02:00,67.1,61.4,29.84,NNE,18,5.0,6.0,82,0.00,,---,0.00,VWS V14.01,2013-03-19 03:02:00,
2013-03-18 22:03:00,67.1,61.4,29.84,North,355,3.0,6.0,82,0.00,,---,0.00,VWS V14.01,2013-03-19 03:03:00,
2013-03-18 22:04:00,67.1,61.4,29.84,NNE,29,3.0,6.0,82,0.00,,---,0.00,VWS V14.01,2013-03-19 03:04:00,
2013-03-18 22:05:00,70.6,60.3,29.81,NE,42,0.0,12.0,70,0.00,,---,0.00,VWS V14.01,2013-03-19 03:05:00,
2013-03-18 22:06:00,66.9,61.2,29.84,NNE,28,3.0,6.0,82,0.00,,---,0.00,VWS V14.01,2013-03-19 03:06:00,
2013-03-18 22:07:00,66.9,61.2,29.84,North,5,8.0,9.0,82,0.00,,---,0.00,VWS V14.01,2013-03-19 03:07:00,
2013-03-18 22:08:00,66.8,61.1,29.84,NNE,28,7.0,9.0,82,0.00,,---,0.00,VWS V14.01,2013-03-19 03:08:00,
2013-03-18 22:09:00,66.8,61.1,29.84,North,360,10.0,11.0,82,0.00,,---,0.00,VWS V14.01,2013-03-19 03:09:00,
2013-03-18 22:10:00,70.3,60.1,29.81,NNE,21,3.0,12.0,70,0.00,,---,0.00,VWS V14.01,2013-03-19 03:10:00,
2013-03-18 22:11:00,66.8,61.5,29.84,NNE,26,10.0,12.0,83,0.00,,---,0.00,VWS V14.01,2013-03-19 03:11:00,
2013-03-18 22:12:00,66.6,61.3,29.84,North,9,6.0,12.0,83,0.00,,---,0.00,VWS V14.01,2013-03-19 03:12:00,
2013-03-18 22:13:00,66.6,61.3,29.84,North,355,3.0,12.0,83,0.00,,---,0.00,VWS V14.01,2013-03-19 03:13:00,
2013-03-18 22:14:00,66.6,61.3,29.84,North,355,9.0,12.0,83,0.00,,---,0.00,VWS V14.01,2013-03-19 03:14:00,
2013-03-18 22:15:00,69.9,60.1,29.82,NNE,19,9.0,14.0,71,0.00,,---,0.00,VWS V14.01,2013-03-19 03:15:00,
2013-03-18 22:16:00,66.6,61.3,29.85,North,355,6.0,7.0,83,0.00,,---,0.00,VWS V14.01,2013-03-19 03:16:00,
2013-03-18 22:17:00,66.6,61.3,29.85,NE,36,5.0,13.0,83,0.00,,---,0.00,VWS V14.01,2013-03-19 03:17:00,
2013-03-18 22:18:00,66.4,61.1,29.85,NW,324,5.0,13.0,83,0.00,,---,0.00,VWS V14.01,2013-03-19 03:18:00,
2013-03-18 22:20:00,69.6,60.2,29.82,NNE,13,6.0,14.0,72,0.00,,---,0.00,VWS V14.01,2013-03-19 03:20:00,
2013-03-18 22:25:00,69.3,60.7,29.82,North,5,5.0,14.0,74,0.00,,---,0.00,VWS V14.01,2013-03-19 03:25:00,
2013-03-18 22:30:00,68.9,60.7,29.83,North,9,8.0,12.0,75,0.00,,---,0.00,VWS V14.01,2013-03-19 03:30:00,
2013-03-18 22:35:00,68.4,60.9,29.83,NNE,30,11.0,14.0,77,0.00,,---,0.00,VWS V14.01,2013-03-19 03:35:00,
2013-03-18 22:40:00,67.9,60.8,29.83,NNE,26,5.0,14.0,78,0.00,,---,0.00,VWS V14.01,2013-03-19 03:40:00,
2013-03-18 22:45:00,67.8,61.4,29.84,NNE,26,7.0,12.0,80,0.00,,---,0.00,VWS V14.01,2013-03-19 03:45:00,
2013-03-18 22:50:00,67.4,61.0,29.84,North,350,4.0,12.0,80,0.00,,---,0.00,VWS V14.01,2013-03-19 03:50:00,
2013-03-18 22:55:00,67.3,61.3,29.84,NNW,346,3.0,12.0,81,0.00,,---,0.00,VWS V14.01,2013-03-19 03:55:00,
2013-03-18 23:00:00,65.3,60.3,29.86,NNW,346,7.0,17.0,84,0.00,,---,0.00,VWS V14.01,2013-03-19 04:00:00,
2013-03-18 23:11:00,66.6,61.3,29.84,North,5,5.0,12.0,83,0.00,,---,0.00,VWS V14.01,2013-03-19 04:11:00,
2013-03-18 23:15:00,64.7,59.8,29.86,NNE,26,9.0,16.0,84,0.00,,---,0.00,VWS V14.01,2013-03-19 04:15:00,
2013-03-18 23:16:00,66.4,61.1,29.85,NE,38,7.0,13.0,83,0.00,,---,0.00,VWS V14.01,2013-03-19 04:16:00,
2013-03-18 23:21:00,66.4,61.1,29.85,NNE,23,7.0,13.0,83,0.00,,---,0.00,VWS V14.01,2013-03-19 04:21:00,
2013-03-18 23:27:00,66.3,61.0,29.85,NNE,30,5.0,13.0,83,0.00,,---,0.00,VWS V14.01,2013-03-19 04:27:00,
2013-03-18 23:30:00,64.3,59.4,29.87,NE,40,8.0,14.0,84,0.00,,---,0.00,VWS V14.01,2013-03-19 04:30:00,
2013-03-18 23:32:00,66.3,61.0,29.85,NE,36,5.0,11.0,83,0.00,,---,0.00,VWS V14.01,2013-03-19 04:32:00,
2013-03-18 23:37:00,66.1,61.1,29.85,NNW,340,5.0,14.0,84,0.00,,---,0.00,VWS V14.01,2013-03-19 04:37:00,
2013-03-18 23:42:00,65.8,60.8,29.85,North,360,12.0,14.0,84,0.00,,---,0.00,VWS V14.01,2013-03-19 04:42:00,
2013-03-18 23:45:00,64.0,59.1,29.87,NNE,17,10.0,17.0,84,0.00,,---,0.00,VWS V14.01,2013-03-19 04:45:00,
2013-03-18 23:47:00,65.6,60.6,29.86,NNW,330,6.0,13.0,84,0.00,,---,0.00,VWS V14.01,2013-03-19 04:47:00,
2013-03-18 23:52:00,65.5,60.5,29.86,NNE,13,7.0,17.0,84,0.00,,---,0.00,VWS V14.01,2013-03-19 04:52:00,
2013-03-18 23:57:00,65.3,60.3,29.86,NNW,331,12.0,17.0,84,0.00,,---,0.00,VWS V14.01,2013-03-19 04:57:00,